sensor_id;sensor_type;location;lat;lon;timestamp;P1;durP1;ratioP1;P2;durP2;ratioP2
11596;SDS011;5854;48.072;16.286;2022-12-16T00:01:04;158.23;;;47.55;;
11596;SDS011;5854;48.072;16.286;2022-12-16T00:03:33;145.15;;;47.17;;
11596;SDS011;5854;48.072;16.286;2022-12-16T00:06:01;153.00;;;49.33;;
11596;SDS011;5854;48.072;16.286;2022-12-16T00:08:31;134.50;;;45.58;;
11596;SDS011;5854;48.072;16.286;2022-12-16T00:11:01;127.90;;;43.45;;
11596;SDS011;5854;48.072;16.286;2022-12-16T00:13:29;130.02;;;43.78;;
11596;SDS011;5854;48.072;16.286;2022-12-16T00:16:02;143.07;;;47.35;;
11596;SDS011;5854;48.072;16.286;2022-12-16T00:18:30;116.22;;;42.08;;
11596;SDS011;5854;48.072;16.286;2022-12-16T00:20:57;127.28;;;39.25;;
11596;SDS011;5854;48.072;16.286;2022-12-16T00:23:26;142.10;;;46.28;;
11596;SDS011;5854;48.072;16.286;2022-12-16T00:25:54;111.93;;;39.30;;
11596;SDS011;5854;48.072;16.286;2022-12-16T00:28:22;136.45;;;46.45;;
11596;SDS011;5854;48.072;16.286;2022-12-16T00:30:51;149.75;;;47.88;;
11596;SDS011;5854;48.072;16.286;2022-12-16T00:33:22;147.40;;;46.97;;
11596;SDS011;5854;48.072;16.286;2022-12-16T00:35:51;132.30;;;44.78;;
11596;SDS011;5854;48.072;16.286;2022-12-16T00:38:19;141.93;;;46.30;;
11596;SDS011;5854;48.072;16.286;2022-12-16T00:40:47;148.88;;;47.72;;
11596;SDS011;5854;48.072;16.286;2022-12-16T00:43:16;130.27;;;44.72;;
11596;SDS011;5854;48.072;16.286;2022-12-16T00:45:44;134.48;;;46.10;;
11596;SDS011;5854;48.072;16.286;2022-12-16T00:48:12;134.10;;;44.67;;
11596;SDS011;5854;48.072;16.286;2022-12-16T00:50:43;131.63;;;46.30;;
11596;SDS011;5854;48.072;16.286;2022-12-16T00:53:15;137.52;;;46.92;;
11596;SDS011;5854;48.072;16.286;2022-12-16T00:55:43;128.05;;;44.78;;
11596;SDS011;5854;48.072;16.286;2022-12-16T00:58:12;109.85;;;40.70;;
11596;SDS011;5854;48.072;16.286;2022-12-16T01:00:41;105.70;;;42.60;;
11596;SDS011;5854;48.072;16.286;2022-12-16T01:03:09;128.20;;;41.80;;
11596;SDS011;5854;48.072;16.286;2022-12-16T01:05:37;136.52;;;44.90;;
11596;SDS011;5854;48.072;16.286;2022-12-16T01:08:07;128.55;;;43.92;;
11596;SDS011;5854;48.072;16.286;2022-12-16T01:10:35;121.70;;;42.92;;
11596;SDS011;5854;48.072;16.286;2022-12-16T01:13:02;118.63;;;41.85;;
11596;SDS011;5854;48.072;16.286;2022-12-16T01:15:30;115.82;;;41.22;;
11596;SDS011;5854;48.072;16.286;2022-12-16T01:17:59;117.13;;;42.78;;
11596;SDS011;5854;48.072;16.286;2022-12-16T01:20:27;106.07;;;41.03;;
11596;SDS011;5854;48.072;16.286;2022-12-16T01:22:56;130.27;;;38.58;;
11596;SDS011;5854;48.072;16.286;2022-12-16T01:25:28;79.05;;;29.80;;
11596;SDS011;5854;48.072;16.286;2022-12-16T01:27:56;129.75;;;40.22;;
11596;SDS011;5854;48.072;16.286;2022-12-16T01:30:24;111.00;;;39.15;;
11596;SDS011;5854;48.072;16.286;2022-12-16T01:32:52;106.40;;;39.25;;
11596;SDS011;5854;48.072;16.286;2022-12-16T01:35:20;106.72;;;39.15;;
11596;SDS011;5854;48.072;16.286;2022-12-16T01:37:47;107.68;;;38.03;;
11596;SDS011;5854;48.072;16.286;2022-12-16T01:40:15;83.13;;;33.33;;
11596;SDS011;5854;48.072;16.286;2022-12-16T01:42:47;84.43;;;35.27;;
11596;SDS011;5854;48.072;16.286;2022-12-16T01:48:06;57.53;;;27.10;;
11596;SDS011;5854;48.072;16.286;2022-12-16T01:50:46;63.90;;;29.67;;
11596;SDS011;5854;48.072;16.286;2022-12-16T01:53:15;64.43;;;29.23;;
11596;SDS011;5854;48.072;16.286;2022-12-16T01:55:44;59.28;;;27.20;;
11596;SDS011;5854;48.072;16.286;2022-12-16T02:00:45;54.88;;;27.05;;
11596;SDS011;5854;48.072;16.286;2022-12-16T02:03:12;53.78;;;25.08;;
11596;SDS011;5854;48.072;16.286;2022-12-16T02:05:40;41.83;;;21.95;;
11596;SDS011;5854;48.072;16.286;2022-12-16T02:08:11;43.45;;;24.77;;
11596;SDS011;5854;48.072;16.286;2022-12-16T02:10:46;47.88;;;24.95;;
11596;SDS011;5854;48.072;16.286;2022-12-16T02:13:38;48.92;;;25.38;;
11596;SDS011;5854;48.072;16.286;2022-12-16T02:16:19;43.83;;;22.15;;
11596;SDS011;5854;48.072;16.286;2022-12-16T02:18:55;42.75;;;23.75;;
11596;SDS011;5854;48.072;16.286;2022-12-16T02:21:38;48.13;;;27.35;;
11596;SDS011;5854;48.072;16.286;2022-12-16T02:24:32;31.10;;;18.92;;
11596;SDS011;5854;48.072;16.286;2022-12-16T02:27:37;40.08;;;22.50;;
11596;SDS011;5854;48.072;16.286;2022-12-16T02:30:33;32.30;;;20.42;;
11596;SDS011;5854;48.072;16.286;2022-12-16T02:33:34;31.15;;;19.05;;
11596;SDS011;5854;48.072;16.286;2022-12-16T02:36:18;29.17;;;17.58;;
11596;SDS011;5854;48.072;16.286;2022-12-16T02:38:55;31.50;;;20.60;;
11596;SDS011;5854;48.072;16.286;2022-12-16T02:41:28;24.80;;;15.63;;
11596;SDS011;5854;48.072;16.286;2022-12-16T02:44:05;36.85;;;19.30;;
11596;SDS011;5854;48.072;16.286;2022-12-16T02:46:39;29.73;;;18.83;;
11596;SDS011;5854;48.072;16.286;2022-12-16T02:49:42;24.50;;;17.30;;
11596;SDS011;5854;48.072;16.286;2022-12-16T02:52:18;25.98;;;14.45;;
11596;SDS011;5854;48.072;16.286;2022-12-16T02:54:49;27.50;;;16.98;;
11596;SDS011;5854;48.072;16.286;2022-12-16T02:57:32;22.40;;;16.15;;
11596;SDS011;5854;48.072;16.286;2022-12-16T03:00:20;24.13;;;16.48;;
11596;SDS011;5854;48.072;16.286;2022-12-16T03:02:54;24.90;;;15.50;;
11596;SDS011;5854;48.072;16.286;2022-12-16T03:05:27;25.17;;;17.05;;
11596;SDS011;5854;48.072;16.286;2022-12-16T03:07:59;22.73;;;14.10;;
11596;SDS011;5854;48.072;16.286;2022-12-16T03:10:33;21.05;;;14.40;;
11596;SDS011;5854;48.072;16.286;2022-12-16T03:13:04;22.33;;;14.32;;
11596;SDS011;5854;48.072;16.286;2022-12-16T03:15:34;21.15;;;15.20;;
11596;SDS011;5854;48.072;16.286;2022-12-16T03:18:06;22.67;;;16.50;;
11596;SDS011;5854;48.072;16.286;2022-12-16T03:20:36;26.55;;;18.65;;
11596;SDS011;5854;48.072;16.286;2022-12-16T03:23:10;22.55;;;17.17;;
11596;SDS011;5854;48.072;16.286;2022-12-16T03:25:42;27.67;;;18.00;;
11596;SDS011;5854;48.072;16.286;2022-12-16T03:28:16;28.20;;;19.02;;
11596;SDS011;5854;48.072;16.286;2022-12-16T03:30:57;27.75;;;18.48;;
11596;SDS011;5854;48.072;16.286;2022-12-16T03:33:37;25.75;;;18.73;;
11596;SDS011;5854;48.072;16.286;2022-12-16T03:36:11;19.70;;;14.45;;
11596;SDS011;5854;48.072;16.286;2022-12-16T03:38:45;24.65;;;16.45;;
11596;SDS011;5854;48.072;16.286;2022-12-16T03:41:13;29.95;;;19.38;;
11596;SDS011;5854;48.072;16.286;2022-12-16T03:43:41;24.40;;;17.45;;
11596;SDS011;5854;48.072;16.286;2022-12-16T03:46:09;20.40;;;14.55;;
11596;SDS011;5854;48.072;16.286;2022-12-16T03:48:44;22.58;;;15.93;;
11596;SDS011;5854;48.072;16.286;2022-12-16T03:51:14;23.13;;;16.10;;
11596;SDS011;5854;48.072;16.286;2022-12-16T03:53:41;20.75;;;16.00;;
11596;SDS011;5854;48.072;16.286;2022-12-16T03:56:08;15.45;;;12.88;;
11596;SDS011;5854;48.072;16.286;2022-12-16T03:58:36;22.45;;;15.82;;
11596;SDS011;5854;48.072;16.286;2022-12-16T04:01:04;21.40;;;13.02;;
11596;SDS011;5854;48.072;16.286;2022-12-16T04:03:33;29.38;;;16.60;;
11596;SDS011;5854;48.072;16.286;2022-12-16T04:06:02;14.73;;;10.63;;
11596;SDS011;5854;48.072;16.286;2022-12-16T04:08:30;18.00;;;12.65;;
11596;SDS011;5854;48.072;16.286;2022-12-16T04:10:57;8.43;;;7.57;;
11596;SDS011;5854;48.072;16.286;2022-12-16T04:13:42;43.10;;;13.75;;
11596;SDS011;5854;48.072;16.286;2022-12-16T04:16:27;15.32;;;8.15;;
11596;SDS011;5854;48.072;16.286;2022-12-16T04:19:15;28.88;;;14.00;;
11596;SDS011;5854;48.072;16.286;2022-12-16T04:22:11;32.65;;;13.73;;
11596;SDS011;5854;48.072;16.286;2022-12-16T04:25:06;37.13;;;15.27;;
11596;SDS011;5854;48.072;16.286;2022-12-16T04:27:37;37.17;;;13.98;;
11596;SDS011;5854;48.072;16.286;2022-12-16T04:30:05;50.05;;;12.98;;
11596;SDS011;5854;48.072;16.286;2022-12-16T04:32:46;17.27;;;12.43;;
11596;SDS011;5854;48.072;16.286;2022-12-16T04:35:34;32.25;;;13.88;;
11596;SDS011;5854;48.072;16.286;2022-12-16T04:38:20;19.60;;;13.25;;
11596;SDS011;5854;48.072;16.286;2022-12-16T04:41:06;20.48;;;12.38;;
11596;SDS011;5854;48.072;16.286;2022-12-16T04:43:54;15.80;;;13.15;;
11596;SDS011;5854;48.072;16.286;2022-12-16T04:46:39;14.73;;;12.13;;
11596;SDS011;5854;48.072;16.286;2022-12-16T04:49:24;14.85;;;11.85;;
11596;SDS011;5854;48.072;16.286;2022-12-16T04:52:08;14.30;;;11.32;;
11596;SDS011;5854;48.072;16.286;2022-12-16T04:54:55;15.10;;;11.48;;
11596;SDS011;5854;48.072;16.286;2022-12-16T04:57:39;13.65;;;11.32;;
11596;SDS011;5854;48.072;16.286;2022-12-16T05:00:24;17.75;;;11.35;;
11596;SDS011;5854;48.072;16.286;2022-12-16T05:03:08;14.10;;;10.70;;
11596;SDS011;5854;48.072;16.286;2022-12-16T05:05:53;11.52;;;10.13;;
11596;SDS011;5854;48.072;16.286;2022-12-16T05:08:38;12.35;;;11.10;;
11596;SDS011;5854;48.072;16.286;2022-12-16T05:11:24;15.57;;;12.95;;
11596;SDS011;5854;48.072;16.286;2022-12-16T05:14:09;18.42;;;11.88;;
11596;SDS011;5854;48.072;16.286;2022-12-16T05:17:05;16.42;;;12.20;;
11596;SDS011;5854;48.072;16.286;2022-12-16T05:19:50;12.68;;;11.40;;
11596;SDS011;5854;48.072;16.286;2022-12-16T05:22:35;16.58;;;12.52;;
11596;SDS011;5854;48.072;16.286;2022-12-16T05:25:19;13.48;;;11.65;;
11596;SDS011;5854;48.072;16.286;2022-12-16T05:28:06;15.00;;;11.80;;
11596;SDS011;5854;48.072;16.286;2022-12-16T05:31:05;35.13;;;12.35;;
11596;SDS011;5854;48.072;16.286;2022-12-16T05:33:51;19.67;;;12.30;;
11596;SDS011;5854;48.072;16.286;2022-12-16T05:36:36;16.35;;;12.23;;
11596;SDS011;5854;48.072;16.286;2022-12-16T05:39:20;18.13;;;12.63;;
11596;SDS011;5854;48.072;16.286;2022-12-16T05:42:05;19.77;;;12.80;;
11596;SDS011;5854;48.072;16.286;2022-12-16T05:47:35;18.92;;;13.27;;
11596;SDS011;5854;48.072;16.286;2022-12-16T05:50:16;16.70;;;11.57;;
11596;SDS011;5854;48.072;16.286;2022-12-16T05:53:00;16.38;;;12.55;;
11596;SDS011;5854;48.072;16.286;2022-12-16T05:55:47;14.35;;;11.27;;
11596;SDS011;5854;48.072;16.286;2022-12-16T05:58:47;15.20;;;11.20;;
11596;SDS011;5854;48.072;16.286;2022-12-16T06:04:07;13.95;;;10.77;;
11596;SDS011;5854;48.072;16.286;2022-12-16T06:14:29;11.70;;;10.05;;
11596;SDS011;5854;48.072;16.286;2022-12-16T06:19:44;15.57;;;11.05;;
11596;SDS011;5854;48.072;16.286;2022-12-16T06:22:28;11.52;;;9.27;;
11596;SDS011;5854;48.072;16.286;2022-12-16T06:27:48;13.40;;;10.50;;
11596;SDS011;5854;48.072;16.286;2022-12-16T06:30:35;11.48;;;10.20;;
11596;SDS011;5854;48.072;16.286;2022-12-16T06:33:22;12.48;;;10.63;;
11596;SDS011;5854;48.072;16.286;2022-12-16T06:36:08;12.77;;;10.73;;
11596;SDS011;5854;48.072;16.286;2022-12-16T06:38:53;14.90;;;11.65;;
11596;SDS011;5854;48.072;16.286;2022-12-16T06:41:38;21.20;;;12.68;;
11596;SDS011;5854;48.072;16.286;2022-12-16T06:52:10;13.20;;;10.65;;
11596;SDS011;5854;48.072;16.286;2022-12-16T06:54:55;13.95;;;11.55;;
11596;SDS011;5854;48.072;16.286;2022-12-16T07:08:00;11.00;;;9.38;;
11596;SDS011;5854;48.072;16.286;2022-12-16T07:13:18;21.10;;;13.90;;
11596;SDS011;5854;48.072;16.286;2022-12-16T07:16:17;24.70;;;14.13;;
11596;SDS011;5854;48.072;16.286;2022-12-16T07:19:01;27.50;;;14.73;;
11596;SDS011;5854;48.072;16.286;2022-12-16T07:24:26;35.28;;;16.95;;
11596;SDS011;5854;48.072;16.286;2022-12-16T07:27:12;34.85;;;19.63;;
11596;SDS011;5854;48.072;16.286;2022-12-16T07:30:10;26.85;;;12.95;;
11596;SDS011;5854;48.072;16.286;2022-12-16T07:32:56;21.27;;;9.88;;
11596;SDS011;5854;48.072;16.286;2022-12-16T07:35:41;33.85;;;17.88;;
11596;SDS011;5854;48.072;16.286;2022-12-16T07:38:26;17.98;;;10.40;;
11596;SDS011;5854;48.072;16.286;2022-12-16T07:41:12;22.58;;;15.43;;
11596;SDS011;5854;48.072;16.286;2022-12-16T07:44:05;30.30;;;17.00;;
11596;SDS011;5854;48.072;16.286;2022-12-16T07:46:49;25.50;;;14.85;;
11596;SDS011;5854;48.072;16.286;2022-12-16T07:49:39;27.05;;;17.35;;
11596;SDS011;5854;48.072;16.286;2022-12-16T07:52:26;20.45;;;12.57;;
11596;SDS011;5854;48.072;16.286;2022-12-16T07:55:13;24.02;;;15.60;;
11596;SDS011;5854;48.072;16.286;2022-12-16T07:57:59;12.60;;;9.77;;
11596;SDS011;5854;48.072;16.286;2022-12-16T08:03:49;6.43;;;5.82;;
11596;SDS011;5854;48.072;16.286;2022-12-16T08:06:33;14.15;;;9.38;;
11596;SDS011;5854;48.072;16.286;2022-12-16T08:09:18;14.95;;;11.70;;
11596;SDS011;5854;48.072;16.286;2022-12-16T08:12:03;15.45;;;11.60;;
11596;SDS011;5854;48.072;16.286;2022-12-16T08:14:49;16.30;;;11.45;;
11596;SDS011;5854;48.072;16.286;2022-12-16T08:17:34;15.88;;;11.00;;
11596;SDS011;5854;48.072;16.286;2022-12-16T08:20:33;10.32;;;6.43;;
11596;SDS011;5854;48.072;16.286;2022-12-16T08:23:17;12.13;;;10.13;;
11596;SDS011;5854;48.072;16.286;2022-12-16T08:26:01;13.52;;;9.15;;
11596;SDS011;5854;48.072;16.286;2022-12-16T08:28:46;11.73;;;9.80;;
11596;SDS011;5854;48.072;16.286;2022-12-16T08:31:32;6.82;;;6.00;;
11596;SDS011;5854;48.072;16.286;2022-12-16T08:34:17;7.72;;;6.38;;
11596;SDS011;5854;48.072;16.286;2022-12-16T08:37:01;7.32;;;6.72;;
11596;SDS011;5854;48.072;16.286;2022-12-16T08:39:46;9.30;;;7.45;;
11596;SDS011;5854;48.072;16.286;2022-12-16T08:42:30;8.65;;;7.47;;
11596;SDS011;5854;48.072;16.286;2022-12-16T08:45:14;8.02;;;7.00;;
11596;SDS011;5854;48.072;16.286;2022-12-16T08:48:01;9.73;;;8.40;;
11596;SDS011;5854;48.072;16.286;2022-12-16T08:50:45;8.18;;;7.35;;
11596;SDS011;5854;48.072;16.286;2022-12-16T08:53:30;9.95;;;7.22;;
11596;SDS011;5854;48.072;16.286;2022-12-16T08:56:24;8.63;;;7.32;;
11596;SDS011;5854;48.072;16.286;2022-12-16T08:59:09;6.82;;;5.63;;
11596;SDS011;5854;48.072;16.286;2022-12-16T09:01:53;6.95;;;6.38;;
11596;SDS011;5854;48.072;16.286;2022-12-16T09:04:39;8.48;;;7.53;;
11596;SDS011;5854;48.072;16.286;2022-12-16T09:07:24;7.82;;;7.13;;
11596;SDS011;5854;48.072;16.286;2022-12-16T09:10:08;7.28;;;6.57;;
11596;SDS011;5854;48.072;16.286;2022-12-16T09:12:53;6.40;;;5.80;;
11596;SDS011;5854;48.072;16.286;2022-12-16T09:15:48;8.48;;;7.68;;
11596;SDS011;5854;48.072;16.286;2022-12-16T09:18:32;10.88;;;5.30;;
11596;SDS011;5854;48.072;16.286;2022-12-16T09:21:18;8.00;;;7.20;;
11596;SDS011;5854;48.072;16.286;2022-12-16T09:24:03;9.02;;;8.13;;
11596;SDS011;5854;48.072;16.286;2022-12-16T09:26:48;11.05;;;8.18;;
11596;SDS011;5854;48.072;16.286;2022-12-16T09:29:33;8.90;;;8.10;;
11596;SDS011;5854;48.072;16.286;2022-12-16T09:32:17;9.02;;;8.15;;
11596;SDS011;5854;48.072;16.286;2022-12-16T09:35:02;10.43;;;9.27;;
11596;SDS011;5854;48.072;16.286;2022-12-16T09:37:48;11.50;;;10.18;;
11596;SDS011;5854;48.072;16.286;2022-12-16T09:40:33;11.80;;;10.00;;
11596;SDS011;5854;48.072;16.286;2022-12-16T09:43:29;17.27;;;12.18;;
11596;SDS011;5854;48.072;16.286;2022-12-16T09:46:41;15.73;;;11.32;;
11596;SDS011;5854;48.072;16.286;2022-12-16T09:49:36;16.30;;;11.35;;
11596;SDS011;5854;48.072;16.286;2022-12-16T09:52:29;9.15;;;7.55;;
11596;SDS011;5854;48.072;16.286;2022-12-16T09:55:21;16.60;;;12.13;;
11596;SDS011;5854;48.072;16.286;2022-12-16T09:58:09;17.67;;;12.83;;
11596;SDS011;5854;48.072;16.286;2022-12-16T10:00:56;19.85;;;13.15;;
11596;SDS011;5854;48.072;16.286;2022-12-16T10:03:41;7.97;;;6.50;;
11596;SDS011;5854;48.072;16.286;2022-12-16T10:06:29;16.95;;;11.30;;
11596;SDS011;5854;48.072;16.286;2022-12-16T10:09:23;22.95;;;13.30;;
11596;SDS011;5854;48.072;16.286;2022-12-16T10:12:17;16.75;;;12.52;;
11596;SDS011;5854;48.072;16.286;2022-12-16T10:15:13;18.00;;;11.80;;
11596;SDS011;5854;48.072;16.286;2022-12-16T10:18:12;15.85;;;11.95;;
11596;SDS011;5854;48.072;16.286;2022-12-16T10:21:10;12.52;;;9.77;;
11596;SDS011;5854;48.072;16.286;2022-12-16T10:24:04;14.93;;;8.80;;
11596;SDS011;5854;48.072;16.286;2022-12-16T10:27:03;14.35;;;11.30;;
11596;SDS011;5854;48.072;16.286;2022-12-16T10:29:55;17.95;;;11.50;;
11596;SDS011;5854;48.072;16.286;2022-12-16T10:32:54;17.60;;;12.43;;
11596;SDS011;5854;48.072;16.286;2022-12-16T10:35:40;17.02;;;12.00;;
11596;SDS011;5854;48.072;16.286;2022-12-16T10:38:40;17.67;;;12.18;;
11596;SDS011;5854;48.072;16.286;2022-12-16T10:41:28;21.23;;;12.98;;
11596;SDS011;5854;48.072;16.286;2022-12-16T10:44:24;22.85;;;12.73;;
11596;SDS011;5854;48.072;16.286;2022-12-16T10:47:16;19.40;;;12.23;;
11596;SDS011;5854;48.072;16.286;2022-12-16T10:50:01;20.63;;;12.77;;
11596;SDS011;5854;48.072;16.286;2022-12-16T10:52:48;22.77;;;13.05;;
11596;SDS011;5854;48.072;16.286;2022-12-16T10:55:38;17.08;;;11.77;;
11596;SDS011;5854;48.072;16.286;2022-12-16T10:58:50;17.73;;;10.27;;
11596;SDS011;5854;48.072;16.286;2022-12-16T11:01:38;19.38;;;12.32;;
11596;SDS011;5854;48.072;16.286;2022-12-16T11:04:33;23.50;;;13.93;;
11596;SDS011;5854;48.072;16.286;2022-12-16T11:07:28;20.38;;;12.63;;
11596;SDS011;5854;48.072;16.286;2022-12-16T11:10:23;22.05;;;13.75;;
11596;SDS011;5854;48.072;16.286;2022-12-16T11:13:14;18.92;;;12.98;;
11596;SDS011;5854;48.072;16.286;2022-12-16T11:18:51;16.85;;;12.07;;
11596;SDS011;5854;48.072;16.286;2022-12-16T11:21:37;19.17;;;12.02;;
11596;SDS011;5854;48.072;16.286;2022-12-16T11:24:21;19.55;;;13.48;;
11596;SDS011;5854;48.072;16.286;2022-12-16T11:27:13;22.02;;;14.20;;
11596;SDS011;5854;48.072;16.286;2022-12-16T11:30:14;23.42;;;15.15;;
11596;SDS011;5854;48.072;16.286;2022-12-16T11:33:03;22.50;;;13.95;;
11596;SDS011;5854;48.072;16.286;2022-12-16T11:36:00;19.75;;;14.52;;
11596;SDS011;5854;48.072;16.286;2022-12-16T11:38:56;24.55;;;15.32;;
11596;SDS011;5854;48.072;16.286;2022-12-16T11:41:42;26.20;;;14.52;;
11596;SDS011;5854;48.072;16.286;2022-12-16T11:44:32;20.38;;;13.15;;
11596;SDS011;5854;48.072;16.286;2022-12-16T11:47:21;21.55;;;13.82;;
11596;SDS011;5854;48.072;16.286;2022-12-16T11:50:17;19.88;;;12.93;;
11596;SDS011;5854;48.072;16.286;2022-12-16T11:53:13;17.08;;;12.65;;
11596;SDS011;5854;48.072;16.286;2022-12-16T11:56:12;19.73;;;13.18;;
11596;SDS011;5854;48.072;16.286;2022-12-16T11:59:05;14.55;;;10.80;;
11596;SDS011;5854;48.072;16.286;2022-12-16T12:01:56;18.00;;;12.52;;
11596;SDS011;5854;48.072;16.286;2022-12-16T12:04:58;20.20;;;13.68;;
11596;SDS011;5854;48.072;16.286;2022-12-16T12:07:43;21.70;;;14.13;;
11596;SDS011;5854;48.072;16.286;2022-12-16T12:10:46;19.77;;;13.50;;
11596;SDS011;5854;48.072;16.286;2022-12-16T12:13:48;19.17;;;13.35;;
11596;SDS011;5854;48.072;16.286;2022-12-16T12:16:55;21.38;;;13.82;;
11596;SDS011;5854;48.072;16.286;2022-12-16T12:19:55;6.25;;;5.60;;
11596;SDS011;5854;48.072;16.286;2022-12-16T12:22:52;17.85;;;12.75;;
11596;SDS011;5854;48.072;16.286;2022-12-16T12:25:43;8.55;;;7.45;;
11596;SDS011;5854;48.072;16.286;2022-12-16T12:28:50;17.20;;;11.85;;
11596;SDS011;5854;48.072;16.286;2022-12-16T12:31:43;19.23;;;14.35;;
11596;SDS011;5854;48.072;16.286;2022-12-16T12:34:41;22.42;;;14.90;;
11596;SDS011;5854;48.072;16.286;2022-12-16T12:37:35;21.63;;;14.93;;
11596;SDS011;5854;48.072;16.286;2022-12-16T12:40:29;23.17;;;14.85;;
11596;SDS011;5854;48.072;16.286;2022-12-16T12:43:29;24.27;;;15.18;;
11596;SDS011;5854;48.072;16.286;2022-12-16T12:46:30;22.33;;;14.52;;
11596;SDS011;5854;48.072;16.286;2022-12-16T12:49:23;25.75;;;16.90;;
11596;SDS011;5854;48.072;16.286;2022-12-16T12:52:19;21.65;;;15.38;;
11596;SDS011;5854;48.072;16.286;2022-12-16T12:55:20;23.27;;;15.80;;
11596;SDS011;5854;48.072;16.286;2022-12-16T12:58:13;25.98;;;17.65;;
11596;SDS011;5854;48.072;16.286;2022-12-16T13:01:00;23.02;;;14.57;;
11596;SDS011;5854;48.072;16.286;2022-12-16T13:04:05;24.23;;;16.27;;
11596;SDS011;5854;48.072;16.286;2022-12-16T13:06:58;21.58;;;14.30;;
11596;SDS011;5854;48.072;16.286;2022-12-16T13:09:44;22.05;;;15.40;;
11596;SDS011;5854;48.072;16.286;2022-12-16T13:12:29;20.13;;;12.35;;
11596;SDS011;5854;48.072;16.286;2022-12-16T13:15:19;26.52;;;16.48;;
11596;SDS011;5854;48.072;16.286;2022-12-16T13:18:21;29.30;;;17.65;;
11596;SDS011;5854;48.072;16.286;2022-12-16T13:24:40;18.40;;;13.57;;
11596;SDS011;5854;48.072;16.286;2022-12-16T13:27:48;25.95;;;17.58;;
11596;SDS011;5854;48.072;16.286;2022-12-16T13:30:38;24.83;;;17.40;;
11596;SDS011;5854;48.072;16.286;2022-12-16T13:33:24;28.95;;;17.10;;
11596;SDS011;5854;48.072;16.286;2022-12-16T13:36:12;27.42;;;16.98;;
11596;SDS011;5854;48.072;16.286;2022-12-16T13:39:04;7.68;;;6.45;;
11596;SDS011;5854;48.072;16.286;2022-12-16T13:42:04;26.80;;;16.75;;
11596;SDS011;5854;48.072;16.286;2022-12-16T13:44:57;23.05;;;15.20;;
11596;SDS011;5854;48.072;16.286;2022-12-16T14:56:44;20.88;;;16.42;;
11596;SDS011;5854;48.072;16.286;2022-12-16T14:59:28;22.42;;;16.27;;
11596;SDS011;5854;48.072;16.286;2022-12-16T15:02:24;23.25;;;16.23;;
11596;SDS011;5854;48.072;16.286;2022-12-16T15:08:07;24.70;;;17.02;;
11596;SDS011;5854;48.072;16.286;2022-12-16T15:10:57;30.48;;;20.30;;
11596;SDS011;5854;48.072;16.286;2022-12-16T15:13:45;24.75;;;17.77;;
11596;SDS011;5854;48.072;16.286;2022-12-16T15:16:32;28.52;;;15.95;;
11596;SDS011;5854;48.072;16.286;2022-12-16T15:19:20;26.45;;;17.75;;
11596;SDS011;5854;48.072;16.286;2022-12-16T15:22:08;24.60;;;17.73;;
11596;SDS011;5854;48.072;16.286;2022-12-16T15:24:57;26.23;;;18.08;;
11596;SDS011;5854;48.072;16.286;2022-12-16T15:27:42;29.52;;;17.70;;
11596;SDS011;5854;48.072;16.286;2022-12-16T15:30:38;30.13;;;18.65;;
11596;SDS011;5854;48.072;16.286;2022-12-16T15:33:25;20.45;;;14.13;;
11596;SDS011;5854;48.072;16.286;2022-12-16T15:36:25;31.27;;;19.83;;
11596;SDS011;5854;48.072;16.286;2022-12-16T15:39:23;30.20;;;20.10;;
11596;SDS011;5854;48.072;16.286;2022-12-16T15:42:19;32.65;;;21.38;;
11596;SDS011;5854;48.072;16.286;2022-12-16T15:45:14;30.38;;;18.65;;
11596;SDS011;5854;48.072;16.286;2022-12-16T15:48:05;27.88;;;17.50;;
11596;SDS011;5854;48.072;16.286;2022-12-16T15:50:56;39.20;;;22.35;;
11596;SDS011;5854;48.072;16.286;2022-12-16T15:53:40;32.03;;;21.55;;
11596;SDS011;5854;48.072;16.286;2022-12-16T15:56:26;25.25;;;15.85;;
11596;SDS011;5854;48.072;16.286;2022-12-16T15:59:27;33.05;;;20.50;;
11596;SDS011;5854;48.072;16.286;2022-12-16T16:02:14;33.72;;;21.77;;
11596;SDS011;5854;48.072;16.286;2022-12-16T16:05:01;31.08;;;20.77;;
11596;SDS011;5854;48.072;16.286;2022-12-16T16:07:53;40.50;;;23.27;;
11596;SDS011;5854;48.072;16.286;2022-12-16T16:10:38;30.52;;;20.23;;
11596;SDS011;5854;48.072;16.286;2022-12-16T16:13:25;33.38;;;20.63;;
11596;SDS011;5854;48.072;16.286;2022-12-16T16:16:11;31.40;;;19.80;;
11596;SDS011;5854;48.072;16.286;2022-12-16T16:18:56;35.95;;;21.80;;
11596;SDS011;5854;48.072;16.286;2022-12-16T16:21:41;36.05;;;22.05;;
11596;SDS011;5854;48.072;16.286;2022-12-16T16:24:31;34.08;;;23.10;;
11596;SDS011;5854;48.072;16.286;2022-12-16T16:27:16;37.85;;;24.35;;
11596;SDS011;5854;48.072;16.286;2022-12-16T16:30:02;30.42;;;19.40;;
11596;SDS011;5854;48.072;16.286;2022-12-16T16:32:49;37.10;;;21.63;;
11596;SDS011;5854;48.072;16.286;2022-12-16T16:35:34;39.05;;;23.27;;
11596;SDS011;5854;48.072;16.286;2022-12-16T16:38:19;41.95;;;24.52;;
11596;SDS011;5854;48.072;16.286;2022-12-16T16:41:04;38.15;;;23.42;;
11596;SDS011;5854;48.072;16.286;2022-12-16T16:43:52;33.42;;;21.05;;
11596;SDS011;5854;48.072;16.286;2022-12-16T16:46:37;34.83;;;22.65;;
11596;SDS011;5854;48.072;16.286;2022-12-16T16:49:29;40.25;;;24.50;;
11596;SDS011;5854;48.072;16.286;2022-12-16T16:52:20;39.97;;;25.83;;
11596;SDS011;5854;48.072;16.286;2022-12-16T16:55:08;39.40;;;23.07;;
11596;SDS011;5854;48.072;16.286;2022-12-16T16:58:07;44.35;;;26.10;;
11596;SDS011;5854;48.072;16.286;2022-12-16T17:00:56;42.70;;;25.23;;
11596;SDS011;5854;48.072;16.286;2022-12-16T17:03:41;50.72;;;26.63;;
11596;SDS011;5854;48.072;16.286;2022-12-16T17:06:27;43.70;;;25.45;;
11596;SDS011;5854;48.072;16.286;2022-12-16T17:09:11;41.05;;;24.13;;
11596;SDS011;5854;48.072;16.286;2022-12-16T17:11:56;43.03;;;25.38;;
11596;SDS011;5854;48.072;16.286;2022-12-16T17:14:40;39.92;;;25.75;;
11596;SDS011;5854;48.072;16.286;2022-12-16T17:17:25;29.83;;;17.30;;
11596;SDS011;5854;48.072;16.286;2022-12-16T17:20:12;47.05;;;25.63;;
11596;SDS011;5854;48.072;16.286;2022-12-16T17:22:58;43.35;;;26.02;;
11596;SDS011;5854;48.072;16.286;2022-12-16T17:25:43;48.00;;;26.30;;
11596;SDS011;5854;48.072;16.286;2022-12-16T17:28:28;47.10;;;27.45;;
11596;SDS011;5854;48.072;16.286;2022-12-16T17:31:12;47.40;;;26.42;;
11596;SDS011;5854;48.072;16.286;2022-12-16T17:33:57;51.22;;;28.15;;
11596;SDS011;5854;48.072;16.286;2022-12-16T17:36:38;51.08;;;27.70;;
11596;SDS011;5854;48.072;16.286;2022-12-16T17:39:26;56.22;;;29.08;;
11596;SDS011;5854;48.072;16.286;2022-12-16T17:42:11;42.20;;;25.38;;
11596;SDS011;5854;48.072;16.286;2022-12-16T17:44:55;48.55;;;27.10;;
11596;SDS011;5854;48.072;16.286;2022-12-16T17:47:40;31.48;;;16.85;;
11596;SDS011;5854;48.072;16.286;2022-12-16T17:50:24;46.13;;;24.65;;
11596;SDS011;5854;48.072;16.286;2022-12-16T17:53:09;44.65;;;25.50;;
11596;SDS011;5854;48.072;16.286;2022-12-16T17:55:54;41.72;;;24.55;;
11596;SDS011;5854;48.072;16.286;2022-12-16T17:58:39;47.72;;;26.73;;
11596;SDS011;5854;48.072;16.286;2022-12-16T18:01:38;42.05;;;25.15;;
11596;SDS011;5854;48.072;16.286;2022-12-16T18:04:31;40.28;;;22.27;;
11596;SDS011;5854;48.072;16.286;2022-12-16T18:07:15;41.03;;;24.63;;
11596;SDS011;5854;48.072;16.286;2022-12-16T18:10:00;45.47;;;24.08;;
11596;SDS011;5854;48.072;16.286;2022-12-16T18:12:46;34.92;;;20.08;;